createdAt,value
2023-02-09T00:01:47.408Z,102476.91
2023-02-09T00:04:15.509Z,102475.16
2023-02-09T00:06:44.531Z,102478.66
2023-02-09T00:09:12.164Z,102476.19
2023-02-09T00:11:57.441Z,102471.03
2023-02-09T00:14:25.198Z,102464.84
2023-02-09T00:16:53.034Z,102474.38
2023-02-09T00:19:21.843Z,102466.66
2023-02-09T00:21:50.829Z,102467.53
2023-02-09T00:24:18.692Z,102470.25
2023-02-09T00:26:46.613Z,102471.94
2023-02-09T00:29:14.696Z,102464.09
2023-02-09T00:31:42.399Z,102465.84
2023-02-09T00:34:11.036Z,102465.16
2023-02-09T00:36:38.677Z,102469.47
2023-02-09T00:39:07.854Z,102463.22
2023-02-09T00:41:52.905Z,102461.47
2023-02-09T00:44:20.621Z,102457.88
2023-02-09T00:46:48.964Z,102452.69
2023-02-09T00:49:16.871Z,102448.44
2023-02-09T00:51:44.559Z,102452.69
2023-02-09T00:54:13.657Z,102448.44
2023-02-09T00:56:41.340Z,102451.03
2023-02-09T00:59:09.052Z,102447.44
2023-02-09T01:01:37.028Z,102442.22
2023-02-09T01:04:05.387Z,102438.84
2023-02-09T01:06:33.224Z,102438.84
2023-02-09T01:09:01.069Z,102434.50
2023-02-09T01:11:30.424Z,102442.22
2023-02-09T01:13:59.792Z,102442.25
2023-02-09T01:16:30.393Z,102451.63
2023-02-09T01:19:00.658Z,102445.56
2023-02-09T01:21:28.412Z,102442.81
2023-02-09T01:23:56.387Z,102441.97
2023-02-09T01:26:24.285Z,102441.13
2023-02-09T01:28:54.287Z,102434.84
2023-02-09T01:31:25.838Z,102436.50
2023-02-09T01:33:54.434Z,102445.28
2023-02-09T01:36:22.446Z,102449.78
2023-02-09T01:38:50.315Z,102446.34
2023-02-09T01:41:18.382Z,102445.50
2023-02-09T01:43:51.124Z,102440.47
2023-02-09T01:46:20.227Z,102438.44
2023-02-09T01:48:48.810Z,102440.88
2023-02-09T01:51:16.612Z,102440.16
2023-02-09T01:53:44.525Z,102442.00
2023-02-09T01:56:15.028Z,102436.00
2023-02-09T01:58:42.770Z,102430.03
2023-02-09T02:01:10.587Z,102424.66
2023-02-09T02:03:39.758Z,102417.78
2023-02-09T02:06:10.771Z,102419.50
2023-02-09T02:08:41.491Z,102424.94
2023-02-09T02:11:10.165Z,102419.81
2023-02-09T02:13:37.847Z,102421.50
2023-02-09T02:16:09.998Z,102419.66
2023-02-09T02:18:48.803Z,102419.84
2023-02-09T02:21:52.811Z,102413.03
2023-02-09T02:24:48.857Z,102391.25
2023-02-09T02:27:26.019Z,102393.13
2023-02-09T02:30:04.632Z,102397.13
2023-02-09T02:32:43.271Z,102390.09
2023-02-09T02:35:16.843Z,102386.78
2023-02-09T02:37:53.486Z,102390.28
2023-02-09T02:40:27.677Z,102377.25
2023-02-09T02:42:58.633Z,102384.09
2023-02-09T02:45:35.240Z,102383.34
2023-02-09T02:48:11.678Z,102371.19
2023-02-09T02:50:43.142Z,102385.81
2023-02-09T02:53:12.003Z,102384.72
2023-02-09T02:55:40.310Z,102372.59
2023-02-09T02:58:10.552Z,102381.28
2023-02-09T03:00:40.920Z,102367.50
2023-02-09T03:03:13.957Z,102371.88
2023-02-09T03:05:43.164Z,102362.16
2023-02-09T03:08:10.847Z,102358.53
2023-02-09T03:10:39.838Z,102363.09
2023-02-09T03:13:31.548Z,102351.03
2023-02-09T03:16:10.042Z,102349.09
2023-02-09T03:18:45.208Z,102343.19
2023-02-09T03:21:16.426Z,102331.72
2023-02-09T03:23:48.605Z,102329.44
2023-02-09T03:26:20.463Z,102330.31
2023-02-09T03:28:50.148Z,102342.50
2023-02-09T03:31:17.892Z,102346.63
2023-02-09T03:33:47.115Z,102339.84
2023-02-09T03:36:18.143Z,102334.69
2023-02-09T03:38:46.030Z,102335.47
2023-02-09T03:41:13.765Z,102335.19
2023-02-09T03:43:59.024Z,102336.25
2023-02-09T03:46:26.842Z,102348.13
2023-02-09T03:48:55.971Z,102343.81
2023-02-09T03:51:23.693Z,102348.19
2023-02-09T03:53:51.431Z,102345.59
2023-02-09T03:56:19.050Z,102336.94
2023-02-09T03:58:46.750Z,102331.78
2023-02-09T04:01:14.456Z,102332.81
2023-02-09T04:03:42.131Z,102320.72
2023-02-09T04:06:11.188Z,102315.66
2023-02-09T04:08:39.007Z,102306.03
2023-02-09T04:11:06.822Z,102294.97
2023-02-09T04:13:34.476Z,102291.25
2023-02-09T04:16:02.245Z,102286.97
2023-02-09T04:18:29.899Z,102297.25
2023-02-09T04:20:57.603Z,102302.59
2023-02-09T04:23:26.595Z,102300.88
2023-02-09T04:25:54.326Z,102285.19
2023-02-09T04:28:22.078Z,102285.84
2023-02-09T04:30:53.096Z,102285.09
2023-02-09T04:33:20.890Z,102285.97
2023-02-09T04:35:49.003Z,102274.59
2023-02-09T04:38:19.442Z,102270.31
2023-02-09T04:40:49.626Z,102266.09
2023-02-09T04:43:17.743Z,102259.19
2023-02-09T04:45:45.582Z,102268.66
2023-02-09T04:48:15.625Z,102270.53
2023-02-09T04:50:43.868Z,102272.22
2023-02-09T04:53:12.122Z,102271.31
2023-02-09T04:55:39.994Z,102271.44
2023-02-09T04:58:27.926Z,102274.91
2023-02-09T05:00:56.187Z,102286.16
2023-02-09T05:03:24.796Z,102293.19
2023-02-09T05:05:55.807Z,102287.00
2023-02-09T05:08:23.763Z,102287.69
2023-02-09T05:10:51.994Z,102304.28
2023-02-09T05:13:21.717Z,102300.88
2023-02-09T05:15:50.026Z,102299.91
2023-02-09T05:18:18.331Z,102300.69
2023-02-09T05:20:46.622Z,102310.38
2023-02-09T05:23:15.036Z,102303.25
2023-02-09T05:25:43.055Z,102310.16
2023-02-09T05:28:10.823Z,102317.19
2023-02-09T05:30:39.970Z,102317.03
2023-02-09T05:33:07.676Z,102317.91
2023-02-09T05:35:36.091Z,102318.66
2023-02-09T05:38:04.075Z,102328.16
2023-02-09T05:40:31.747Z,102328.97
2023-02-09T05:43:00.324Z,102321.06
2023-02-09T05:45:28.131Z,102330.69
2023-02-09T05:47:57.264Z,102326.94
2023-02-09T05:50:25.021Z,102331.47
2023-02-09T05:52:52.663Z,102325.41
2023-02-09T05:55:20.393Z,102306.19
2023-02-09T05:57:48.030Z,102327.00
2023-02-09T06:00:16.755Z,102322.50
2023-02-09T06:02:44.509Z,102328.06
2023-02-09T06:05:13.554Z,102318.50
2023-02-09T06:07:41.258Z,102320.03
2023-02-09T06:10:09.434Z,102330.34
2023-02-09T06:12:37.158Z,102333.75
2023-02-09T06:15:05.608Z,102341.72
2023-02-09T06:17:33.443Z,102326.94
2023-02-09T06:20:01.082Z,102325.09
2023-02-09T06:22:31.722Z,102332.06
2023-02-09T06:24:59.515Z,102324.50
2023-02-09T06:27:27.405Z,102328.69
2023-02-09T06:29:55.108Z,102325.22
2023-02-09T06:32:22.775Z,102328.63
2023-02-09T06:34:50.400Z,102337.31
2023-02-09T06:37:18.083Z,102341.63
2023-02-09T06:39:47.209Z,102353.03
2023-02-09T06:42:15.109Z,102360.53
2023-02-09T06:44:42.856Z,102372.56
2023-02-09T06:47:10.549Z,102376.03
2023-02-09T06:49:38.239Z,102378.63
2023-02-09T06:52:06.658Z,102378.56
2023-02-09T06:54:34.360Z,102378.19
2023-02-09T06:57:03.351Z,102370.25
2023-02-09T06:59:31.015Z,102368.28
2023-02-09T07:01:58.758Z,102385.56
2023-02-09T07:04:26.502Z,102387.06
2023-02-09T07:06:54.185Z,102389.50
2023-02-09T07:09:21.896Z,102385.38
2023-02-09T07:11:49.589Z,102388.00
2023-02-09T07:14:18.684Z,102387.56
2023-02-09T07:16:46.327Z,102392.13
2023-02-09T07:19:14.196Z,102392.81
2023-02-09T07:21:41.903Z,102389.31
2023-02-09T07:24:09.614Z,102383.25
2023-02-09T07:26:37.287Z,102389.50
2023-02-09T07:29:04.967Z,102400.13
2023-02-09T07:31:34.167Z,102397.06
2023-02-09T07:34:01.999Z,102393.44
2023-02-09T07:36:29.836Z,102393.38
2023-02-09T07:38:57.903Z,102397.91
2023-02-09T07:41:26.177Z,102392.50
2023-02-09T07:43:53.935Z,102392.59
2023-02-09T07:46:23.204Z,102403.22
2023-02-09T07:48:52.237Z,102404.38
2023-02-09T07:51:25.243Z,102411.50
2023-02-09T07:53:53.515Z,102410.00
2023-02-09T07:56:21.340Z,102415.53
2023-02-09T07:58:49.292Z,102409.59
2023-02-09T08:01:17.893Z,102415.88
2023-02-09T08:03:46.891Z,102413.47
2023-02-09T08:06:19.779Z,102392.69
2023-02-09T08:08:48.447Z,102391.94
2023-02-09T08:11:17.211Z,102397.97
2023-02-09T08:13:45.008Z,102398.16
2023-02-09T08:16:14.351Z,102382.47
2023-02-09T08:18:45.170Z,102396.56
2023-02-09T08:21:14.597Z,102393.25
2023-02-09T08:23:45.428Z,102391.72
2023-02-09T08:26:14.660Z,102394.47
2023-02-09T08:28:44.907Z,102398.94
2023-02-09T08:31:13.654Z,102388.66
2023-02-09T08:33:41.507Z,102393.97
2023-02-09T08:36:09.784Z,102392.28
2023-02-09T08:38:37.517Z,102389.91
2023-02-09T08:41:08.166Z,102383.13
2023-02-09T08:43:36.365Z,102367.25
2023-02-09T08:46:05.355Z,102364.88
2023-02-09T08:48:35.690Z,102377.16
2023-02-09T08:51:03.710Z,102368.63
2023-02-09T08:53:31.534Z,102363.53
2023-02-09T08:55:59.310Z,102363.59
2023-02-09T08:58:30.212Z,102361.91
2023-02-09T09:00:59.930Z,102369.72
2023-02-09T09:03:31.313Z,102365.34
2023-02-09T09:05:59.597Z,102366.13
2023-02-09T09:08:27.566Z,102371.59
2023-02-09T09:10:55.471Z,102373.47
2023-02-09T09:13:24.875Z,102369.16
2023-02-09T09:15:55.156Z,102377.00
2023-02-09T09:18:24.070Z,102364.16
2023-02-09T09:20:53.332Z,102365.94
2023-02-09T09:23:21.605Z,102359.72
2023-02-09T09:25:49.466Z,102366.81
2023-02-09T09:28:17.627Z,102359.84
2023-02-09T09:30:45.427Z,102357.94
2023-02-09T09:33:14.522Z,102358.16
2023-02-09T09:35:42.306Z,102364.28
2023-02-09T09:38:09.971Z,102366.84
2023-02-09T09:40:40.482Z,102370.97
2023-02-09T09:43:15.065Z,102376.16
2023-02-09T09:45:43.003Z,102379.88
2023-02-09T09:48:23.078Z,102385.88
2023-02-09T09:50:52.236Z,102387.72
2023-02-09T09:53:28.647Z,102385.97
2023-02-09T09:55:59.297Z,102388.56
2023-02-09T09:58:28.830Z,102397.09
2023-02-09T10:00:56.567Z,102398.88
2023-02-09T10:03:35.321Z,102409.38
2023-02-09T10:06:13.899Z,102407.72
2023-02-09T10:08:45.158Z,102409.50
2023-02-09T10:11:14.848Z,102394.81
2023-02-09T10:13:44.977Z,102385.19
2023-02-09T10:16:17.260Z,102396.53
2023-02-09T10:18:46.602Z,102393.06
2023-02-09T10:21:16.094Z,102386.13
2023-02-09T10:23:45.824Z,102392.19
2023-02-09T10:26:24.628Z,102393.09
2023-02-09T10:28:54.339Z,102401.00
2023-02-09T10:31:25.475Z,102387.94
2023-02-09T10:33:58.239Z,102392.31
2023-02-09T10:36:32.332Z,102389.69
2023-02-09T10:39:15.387Z,102401.00
2023-02-09T10:41:44.776Z,102393.25
2023-02-09T10:44:19.494Z,102397.69
2023-02-09T10:46:48.090Z,102404.66
2023-02-09T10:49:31.450Z,102409.88
2023-02-09T10:52:16.826Z,102414.22
2023-02-09T10:54:45.975Z,102420.31
2023-02-09T10:57:28.629Z,102423.78
2023-02-09T10:59:58.302Z,102425.50
2023-02-09T11:02:33.731Z,102413.34
2023-02-09T11:05:02.928Z,102430.66
2023-02-09T11:07:34.551Z,102423.75
2023-02-09T11:10:03.510Z,102422.03
2023-02-09T11:12:31.235Z,102415.09
2023-02-09T11:14:58.941Z,102427.28
2023-02-09T11:17:28.159Z,102433.34
2023-02-09T11:20:15.504Z,102422.94
2023-02-09T11:23:03.863Z,102432.44
2023-02-09T11:25:34.454Z,102418.53
2023-02-09T11:28:22.861Z,102419.38
2023-02-09T11:31:16.777Z,102425.41
2023-02-09T11:33:53.363Z,102428.06
2023-02-09T11:36:37.460Z,102430.66
2023-02-09T11:39:09.467Z,102417.66
2023-02-09T11:41:57.580Z,102423.75
2023-02-09T11:44:31.190Z,102424.53
2023-02-09T11:47:02.802Z,102425.41
2023-02-09T11:49:31.016Z,102420.22
2023-02-09T11:52:00.718Z,102408.91
2023-02-09T11:54:31.411Z,102414.97
2023-02-09T11:57:02.159Z,102404.56
2023-02-09T11:59:33.804Z,102410.56
2023-02-09T12:02:08.397Z,102401.03
2023-02-09T12:04:43.596Z,102403.66
2023-02-09T12:07:17.291Z,102407.88
2023-02-09T12:09:48.161Z,102406.88
2023-02-09T12:12:23.367Z,102405.13
2023-02-09T12:15:09.956Z,102404.22
2023-02-09T12:17:42.741Z,102398.78
2023-02-09T12:20:31.365Z,102403.00
2023-02-09T12:23:07.794Z,102396.94
2023-02-09T12:25:54.556Z,102398.75
2023-02-09T12:28:47.364Z,102392.72
2023-02-09T12:31:24.306Z,102386.69
2023-02-09T12:34:15.799Z,102388.47
2023-02-09T12:37:18.022Z,102377.25
2023-02-09T12:40:29.912Z,102378.09
2023-02-09T12:43:30.342Z,102381.59
2023-02-09T12:46:21.015Z,102386.69
2023-02-09T12:48:54.895Z,102379.81
2023-02-09T12:51:40.346Z,102383.31
2023-02-09T12:54:32.872Z,102379.00
2023-02-09T12:57:33.747Z,102388.50
2023-02-09T13:00:31.076Z,102376.31
2023-02-09T13:03:11.441Z,102367.66
2023-02-09T13:05:44.576Z,102369.50
2023-02-09T13:08:25.556Z,102358.09
2023-02-09T13:10:57.736Z,102363.38
2023-02-09T13:13:34.320Z,102368.56
2023-02-09T13:16:41.607Z,102365.91
2023-02-09T13:19:18.182Z,102359.81
2023-02-09T13:21:57.733Z,102364.16
2023-02-09T13:24:36.545Z,102369.38
2023-02-09T13:27:04.755Z,102372.84
2023-02-09T13:29:33.245Z,102376.34
2023-02-09T13:32:08.282Z,102370.31
2023-02-09T13:34:39.368Z,102371.22
2023-02-09T13:37:15.415Z,102379.97
2023-02-09T13:39:44.138Z,102377.34
2023-02-09T13:42:20.106Z,102375.56
2023-02-09T13:44:51.614Z,102384.38
2023-02-09T13:47:21.042Z,102378.34
2023-02-09T13:50:00.077Z,102384.34
2023-02-09T13:52:28.803Z,102390.34
2023-02-09T13:54:56.426Z,102392.06
2023-02-09T13:57:33.169Z,102379.81
2023-02-09T14:00:08.648Z,102380.78
2023-02-09T14:02:38.166Z,102383.34
2023-02-09T14:05:07.631Z,102385.03
2023-02-09T14:07:37.772Z,102390.28
2023-02-09T14:10:12.301Z,102398.81
2023-02-09T14:12:52.034Z,102390.00
2023-02-09T14:15:38.674Z,102391.75
2023-02-09T14:18:23.399Z,102401.28
2023-02-09T14:21:19.581Z,102384.94
2023-02-09T14:23:49.308Z,102386.63
2023-02-09T14:26:23.693Z,102386.66
2023-02-09T14:28:54.126Z,102378.78
2023-02-09T14:31:23.823Z,102378.97
2023-02-09T14:33:55.560Z,102378.06
2023-02-09T14:36:25.942Z,102377.22
2023-02-09T14:38:54.179Z,102380.72
2023-02-09T14:41:29.818Z,102382.50
2023-02-09T14:43:59.931Z,102369.50
2023-02-09T14:46:27.723Z,102372.91
2023-02-09T14:48:59.542Z,102373.81
2023-02-09T14:51:28.633Z,102373.75
2023-02-09T14:53:56.336Z,102378.09
2023-02-09T14:56:25.873Z,102384.19
2023-02-09T14:58:53.548Z,102381.56
2023-02-09T15:01:21.308Z,102385.06
2023-02-09T15:03:48.948Z,102373.81
2023-02-09T15:06:18.160Z,102376.50
2023-02-09T15:08:45.837Z,102374.78
2023-02-09T15:11:42.191Z,102386.19
2023-02-09T15:14:11.025Z,102389.66
2023-02-09T15:16:38.754Z,102387.06
2023-02-09T15:19:11.842Z,102384.50
2023-02-09T15:21:40.904Z,102395.81
2023-02-09T15:24:08.612Z,102395.81
2023-02-09T15:26:37.517Z,102400.16
2023-02-09T15:29:11.745Z,102396.69
2023-02-09T15:31:39.494Z,102397.56
2023-02-09T15:34:07.495Z,102404.56
2023-02-09T15:36:35.380Z,102419.34
2023-02-09T15:39:05.135Z,102413.31
2023-02-09T15:41:50.535Z,102415.94
2023-02-09T15:44:37.320Z,102415.03
2023-02-09T15:47:23.220Z,102415.94
2023-02-09T15:49:51.365Z,102417.69
2023-02-09T15:52:19.405Z,102416.81
2023-02-09T15:54:49.845Z,102415.09
2023-02-09T15:57:17.494Z,102417.69
2023-02-09T15:59:46.370Z,102425.50
2023-02-09T16:02:14.872Z,102419.41
2023-02-09T16:04:42.522Z,102415.94
2023-02-09T16:07:12.041Z,102419.44
2023-02-09T16:09:40.848Z,102426.41
2023-02-09T16:12:11.996Z,102429.03
2023-02-09T16:14:39.911Z,102423.78
2023-02-09T16:17:08.791Z,102435.13
2023-02-09T16:19:36.509Z,102433.34
2023-02-09T16:22:05.380Z,102424.69
2023-02-09T16:24:43.191Z,102436.00
2023-02-09T16:27:16.290Z,102437.72
2023-02-09T16:29:44.117Z,102440.34
2023-02-09T16:32:17.011Z,102449.03
2023-02-09T16:34:44.720Z,102449.91
2023-02-09T16:37:15.207Z,102448.16
2023-02-09T16:39:43.501Z,102455.13
2023-02-09T16:42:14.872Z,102469.03
2023-02-09T16:44:43.035Z,102477.75
2023-02-09T16:47:17.315Z,102471.66
2023-02-09T16:49:49.723Z,102477.75
2023-02-09T16:52:20.414Z,102484.69
2023-02-09T16:54:50.080Z,102477.75
2023-02-09T16:57:20.772Z,102483.81
2023-02-09T16:59:48.423Z,102479.47
2023-02-09T17:02:29.836Z,102481.22
2023-02-09T17:04:58.006Z,102488.19
2023-02-09T17:07:30.169Z,102496.88
2023-02-09T17:09:59.903Z,102501.22
2023-02-09T17:12:29.069Z,102508.19
2023-02-09T17:14:56.824Z,102510.75
2023-02-09T17:17:24.566Z,102526.41
2023-02-09T17:19:52.893Z,102528.19
2023-02-09T17:22:20.543Z,102530.81
2023-02-09T17:24:48.493Z,102531.69
2023-02-09T17:27:16.128Z,102517.75
2023-02-09T17:29:45.216Z,102532.53
2023-02-09T17:32:15.735Z,102534.28
2023-02-09T17:34:43.749Z,102531.69
2023-02-09T17:37:14.518Z,102522.09
2023-02-09T17:39:42.238Z,102533.41
2023-02-09T17:42:20.675Z,102535.16
2023-02-09T17:44:50.811Z,102535.16
2023-02-09T17:47:20.612Z,102542.13
2023-02-09T17:49:48.445Z,102537.75
2023-02-09T17:52:17.984Z,102540.34
2023-02-09T17:54:46.499Z,102528.19
2023-02-09T17:57:15.009Z,102535.16
2023-02-09T17:59:42.820Z,102534.28
2023-02-09T18:02:16.560Z,102537.75
2023-02-09T18:04:44.266Z,102536.88
2023-02-09T18:07:12.746Z,102530.78
2023-02-09T18:09:40.394Z,102536.00
2023-02-09T18:12:11.940Z,102543.84
2023-02-09T18:14:40.010Z,102543.84
2023-02-09T18:17:07.756Z,102546.47
2023-02-09T18:19:36.893Z,102542.97
2023-02-09T18:22:05.009Z,102540.34
2023-02-09T18:24:34.137Z,102549.94
2023-02-09T18:27:02.069Z,102548.22
2023-02-09T18:29:30.224Z,102555.16
2023-02-09T18:31:58.277Z,102555.16
2023-02-09T18:34:26.109Z,102559.53
2023-02-09T18:36:55.209Z,102562.16
2023-02-09T18:39:22.922Z,102568.22
2023-02-09T18:41:54.432Z,102560.41
2023-02-09T18:44:24.377Z,102566.50
2023-02-09T18:46:52.237Z,102576.94
2023-02-09T18:49:19.962Z,102576.91
2023-02-09T18:51:47.835Z,102571.69
2023-02-09T18:54:16.938Z,102578.69
2023-02-09T18:56:44.644Z,102577.81
2023-02-09T18:59:12.415Z,102575.19
2023-02-09T19:01:41.025Z,102578.66
2023-02-09T19:04:08.963Z,102576.94
2023-02-09T19:06:36.679Z,102579.56
2023-02-09T19:09:04.542Z,102592.63
2023-02-09T19:11:33.604Z,102592.63
2023-02-09T19:14:18.852Z,102592.63
2023-02-09T19:16:46.554Z,102598.72
2023-02-09T19:19:16.071Z,102605.69
2023-02-09T19:21:43.767Z,102601.31
2023-02-09T19:24:11.440Z,102597.84
2023-02-09T19:26:40.530Z,102604.81
2023-02-09T19:29:08.217Z,102606.53
2023-02-09T19:31:35.954Z,102614.38
2023-02-09T19:34:03.704Z,102611.75
2023-02-09T19:36:31.466Z,102613.53
2023-02-09T19:39:00.214Z,102610.03
2023-02-09T19:41:28.276Z,102615.25
2023-02-09T19:43:57.918Z,102619.59
2023-02-09T19:46:26.234Z,102628.31
2023-02-09T19:48:54.634Z,102636.16
2023-02-09T19:51:22.738Z,102645.75
2023-02-09T19:53:50.861Z,102645.72
2023-02-09T19:56:20.757Z,102650.97
2023-02-09T19:58:48.455Z,102647.47
2023-02-09T20:01:17.827Z,102643.09
2023-02-09T20:03:45.525Z,102649.19
2023-02-09T20:06:15.006Z,102652.72
2023-02-09T20:08:42.920Z,102640.50
2023-02-09T20:11:13.127Z,102642.25
2023-02-09T20:13:40.905Z,102651.84
2023-02-09T20:16:09.484Z,102660.53
2023-02-09T20:18:40.119Z,102653.59
2023-02-09T20:21:09.250Z,102652.72
2023-02-09T20:23:37.364Z,102648.34
2023-02-09T20:26:10.804Z,102651.84
2023-02-09T20:28:38.891Z,102646.59
2023-02-09T20:31:07.461Z,102648.31
2023-02-09T20:33:35.649Z,102645.75
2023-02-09T20:36:07.535Z,102640.50
2023-02-09T20:38:36.477Z,102650.06
2023-02-09T20:41:07.023Z,102651.81
2023-02-09T20:43:51.942Z,102644.81
2023-02-09T20:46:39.271Z,102646.56
2023-02-09T20:49:07.359Z,102653.53
2023-02-09T20:51:36.372Z,102659.63
2023-02-09T20:54:04.740Z,102654.41
2023-02-09T20:56:32.538Z,102664.00
2023-02-09T20:59:00.319Z,102663.09
2023-02-09T21:01:28.147Z,102654.41
2023-02-09T21:03:56.878Z,102663.09
2023-02-09T21:06:24.587Z,102657.00
2023-02-09T21:08:54.169Z,102656.16
2023-02-09T21:11:21.931Z,102657.88
2023-02-09T21:13:49.668Z,102651.78
2023-02-09T21:16:17.730Z,102649.19
2023-02-09T21:18:45.849Z,102663.13
2023-02-09T21:21:15.860Z,102653.53
2023-02-09T21:23:43.752Z,102655.28
2023-02-09T21:26:14.847Z,102649.19
2023-02-09T21:28:43.691Z,102652.66
2023-02-09T21:31:12.395Z,102653.53
2023-02-09T21:33:40.043Z,102647.44
2023-02-09T21:36:08.692Z,102651.78
2023-02-09T21:38:41.374Z,102647.44
2023-02-09T21:41:30.804Z,102648.28
2023-02-09T21:44:00.261Z,102648.28
2023-02-09T21:46:28.425Z,102659.59
2023-02-09T21:48:56.296Z,102656.94
2023-02-09T21:51:24.362Z,102658.63
2023-02-09T21:53:52.531Z,102662.91
2023-02-09T21:56:20.535Z,102656.81
2023-02-09T21:58:48.198Z,102662.84
2023-02-09T22:01:17.289Z,102663.66
2023-02-09T22:03:48.905Z,102656.63
2023-02-09T22:06:16.855Z,102657.28
2023-02-09T22:08:44.624Z,102665.03
2023-02-09T22:11:12.375Z,102671.06
2023-02-09T22:13:40.148Z,102665.81
2023-02-09T22:16:08.383Z,102664.03
2023-02-09T22:18:37.791Z,102662.13
2023-02-09T22:21:07.609Z,102659.47
2023-02-09T22:23:35.357Z,102656.81
2023-02-09T22:26:03.683Z,102661.13
2023-02-09T22:28:31.459Z,102659.19
2023-02-09T22:31:06.508Z,102660.91
2023-02-09T22:33:34.415Z,102668.66
2023-02-09T22:36:07.197Z,102665.19
2023-02-09T22:38:35.079Z,102670.31
2023-02-09T22:41:07.030Z,102682.53
2023-02-09T22:43:34.842Z,102681.56
2023-02-09T22:46:02.622Z,102688.38
2023-02-09T22:48:30.287Z,102680.56
2023-02-09T22:50:57.990Z,102693.47
2023-02-09T22:53:27.484Z,102695.16
2023-02-09T22:55:55.127Z,102693.38
2023-02-09T22:58:22.823Z,102695.06
2023-02-09T23:00:50.961Z,102710.59
2023-02-09T23:03:18.606Z,102706.28
2023-02-09T23:05:46.608Z,102709.63
2023-02-09T23:08:14.428Z,102714.00
2023-02-09T23:10:43.502Z,102708.81
2023-02-09T23:13:11.259Z,102713.19
2023-02-09T23:15:39.006Z,102711.31
2023-02-09T23:18:06.818Z,102717.31
2023-02-09T23:20:34.547Z,102710.41
2023-02-09T23:23:06.503Z,102713.84
2023-02-09T23:25:34.237Z,102713.91
2023-02-09T23:28:03.475Z,102714.75
2023-02-09T23:30:31.256Z,102719.09
2023-02-09T23:32:58.944Z,102710.47
2023-02-09T23:35:26.708Z,102722.53
2023-02-09T23:37:54.364Z,102715.56
2023-02-09T23:40:22.059Z,102715.44
2023-02-09T23:42:50.123Z,102721.53
2023-02-09T23:45:19.127Z,102717.09
2023-02-09T23:47:46.877Z,102721.41
2023-02-09T23:50:14.675Z,102726.41
2023-02-09T23:52:42.340Z,102725.56
2023-02-09T23:55:10.147Z,102726.34
2023-02-09T23:57:37.816Z,102733.38
